GCLPGCXO

Guest
Details From GCLP - Gran Canaria - Gando
To GCXO - Tenerife Norte - Los Rodeos
Flight Number -
Tags Generated
Created
Modified
Stats Distance 62 nm / 114 km
Max Altitude 0 ft / 0 m
Waypoints 2
Social Downloads 6
Likes 0
Share VATSIM

Download

Looking for another format? Having issues loading an existing format? Contact us
Advertisement - Login to hide

Notes

Generated

Route

GCLP GCXO

ID Type Via Altitude Latitude Longitude Leg Dist Tot Dist Heading (true) Name
O GCLP APT - 0 ft / 0 m 27.91818˚ -15.39035˚ - 0 nm - -
O GCXO APT - 0 ft / 0 m 28.48804˚ -16.35776˚ 61 nm 61 nm 304° / 304° -

Altitude Profile

Advertisement - Login to hide

GCLP

Details ICAO GCLP (LPA)
Name Gran Canaria
Region Canary Islands
Timezone Atlantic/Canary (UTC+0.0)
Stats Elevation 77 ft / 23 m (AMSL)
Location 27.931544° -15.385592°
Runways 2
Magnetic Variation 4.685° W

METAR

GCLP 141030Z 01017KT 9999 FEW025 20/12 Q1026 NOSIG

Decode

TAF

TAF GCLP 140800Z 1409/1509 01018KT 9999 SCT030 TX22/1414Z TN16/1506Z= TAF AMD KMUO 140828Z 1408/1508 31006KT 6000 BR OVC005 620104 QNH3038INS TEMPO 1408/1410 OVC007 BECMG 1409/1410 11006KT 0800 FZFG OVC002 620027 QNH3047INS BECMG 1416/1417 VRB06KT 3200 BR OVC007 620077 QNH3049INS BECMG 1420/1421 31006KT 8000 BR SCT007 BKN020 620204 QNH3044INS BECMG 1505/1506 11006KT 3200 BR BKN006 620063 QNH3043INS TXM03/1422Z TNM07/1413Z

Decode

Departure Runways

ID Width Length Bearing (true) Bearing (mag) Surface Threshold Offset Overrun Length
03L 148 ft / 45 m 10,203 ft / 3,110 m 21.33° 26.01° Asphalt 0 ft / 0 m 656 ft / 200 m
03R 148 ft / 45 m 10,200 ft / 3,109 m 21.32° 26.00° Asphalt 0 ft / 0 m 673 ft / 205 m
21L 148 ft / 45 m 10,200 ft / 3,109 m 201.33° 206.01° Asphalt 0 ft / 0 m 689 ft / 210 m
21R 148 ft / 45 m 10,203 ft / 3,110 m 201.33° 206.01° Asphalt 0 ft / 0 m 755 ft / 230 m

GCXO

Details ICAO GCXO (TFN)
Name Tenerife Norte - Los Rodeos
Region Canary Islands
Timezone Atlantic/Canary (UTC+0.0)
Stats Elevation 2,076 ft / 633 m (AMSL)
Location 28.482656° -16.341541°
Runways 1
Magnetic Variation 5.003° W

METAR

GCXO 141030Z VRB02KT 9999 FEW012 15/10 Q1028 NOSIG

Decode

TAF

TAF GCXO 140800Z 1409/1509 12005KT 9999 BKN015 TX17/1414Z TN11/1506Z

Decode

Destination Runways

ID Width Length Bearing (true) Bearing (mag) Surface Threshold Offset Overrun Length
12 148 ft / 45 m 11,165 ft / 3,403 m 110.67° 115.67° Asphalt 0 ft / 0 m 197 ft / 60 m
30 148 ft / 45 m 11,165 ft / 3,403 m 290.69° 295.69° Asphalt 0 ft / 0 m 197 ft / 60 m

Approach Navaids

Runway Type Ident Frequency Range Bearing (true) Bearing (mag) Slope Elevation
12 Localiser INOR 108.70 MHz 18 nm / 33 km 110.69° 115.69° - 3,356 ft / 1,023 m (AMSL)
12 Glidescope INOR 108.70 MHz 10 nm / 19 km 110.68° 115.68° 3.00° 2,070 ft / 631 m (AMSL)
12 DME INOR 108.70 MHz 18 nm / 33 km - - - 2,070 ft / 631 m (AMSL)
30 Localiser ITF 110.30 MHz 18 nm / 33 km 290.67° 295.67° - 2,025 ft / 617 m (AMSL)
30 Glidescope ITF 110.30 MHz 10 nm / 19 km 290.68° 295.68° 3.00° 2,025 ft / 617 m (AMSL)
30 DME ITF 110.30 MHz 18 nm / 33 km - - - 2,031 ft / 619 m (AMSL)

Popular Alternatives